AirNav   Airventure
 
 1409 users online  

2O3 Angwin Airport-Parrett Field
Angwin, California, USA

GOING TO ANGWIN?


FAA INFORMATION EFFECTIVE 20 JULY 2017

Location

FAA Identifier: 2O3
Lat/Long: 38-34-48.1000N / 122-26-07.7000W
38-34.801667N / 122-26.128333W
38.5800278 / -122.4354722
(estimated)
Elevation: 1875 ft. / 572 m (estimated)
Variation: 16E (1985)
From city: 1 mile E of ANGWIN, CA
Time zone: UTC -7 (UTC -8 during Standard Time)
Zip code: 94508

Airport Operations

Airport use: Open to the public
Activation date: 03/1961
Control tower: no
ARTCC: OAKLAND CENTER
FSS: OAKLAND FLIGHT SERVICE STATION
NOTAMs facility: OAK (NOTAM-D service available)
Attendance: SUN-FRI 0800-1700
Pattern altitude: 2725 ft. MSL
Wind indicator: lighted
Segmented circle: yes
Lights: ACTVT LIRL RY 16/34 AND TRVC RYS 16 & 34 - CTAF.

Airport Communications

CTAF/UNICOM: 123.0
WX ASOS at STS (18 nm W): PHONE 707-573-8393

Nearby radio navigation aids

VOR radial/distance  VOR name  Freq  Var
STSr060/18.1SANTA ROSA VOR/DME113.0016E
SGDr336/24.2SCAGGS ISLAND VORTAC112.1017E
ILAr195/35.1WILLIAMS VORTAC114.4018E
PYEr017/36.3POINT REYES VOR/DME113.7017E
CCRr313/37.0CONCORD VOR/DME117.0017E

Airport Services

Fuel available: 100LL
Parking: tiedowns
Airframe service: MAJOR
Powerplant service: MAJOR
Bottled oxygen: NONE
Bulk oxygen: HIGH/LOW

Runway Information

Runway 16/34

Dimensions: 3217 x 50 ft. / 981 x 15 m
Surface: asphalt, in fair condition
Runway edge lights: low intensity
Gradient: N
RUNWAY 16  RUNWAY 34
Latitude: 38-35.065500N38-34.537833N
Longitude: 122-26.162333W122-26.095500W
Elevation: 1875.0 ft.1841.0 ft.
Gradient: 0.8%1.1% UP
Traffic pattern: leftright
Markings: basic, in good conditionbasic, in good condition
Visual slope indicator: tri-color VASI on left (5.00 degrees glide path)tri-color VASI on right (5.00 degrees glide path)
Runway end identifier lights: nono
Obstructions: 50 ft. tree, 1000 ft. from runway, 210 ft. left of centerline, 16:1 slope to clear
RWY 16 FENCE IN PRIMARY SFC 100 FT L AND 86 FT R OF CNTRLN PARALLEL TO RWY.
100 ft. trees, 2100 ft. from runway, 330 ft. right of centerline, 19:1 slope to clear

Airport Ownership and Management from official FAA records

Ownership: Privately-owned
Owner: PACIFIC UNION COLLEGE
1 ANGWIN AVENUE
ANGWIN, CA 94508
Phone 707-965-6219
Manager: KAYE VARNEY
1 ANGWIN AVENUE
ANGWIN, CA 94508
Phone 707-965-6219

Airport Operational Statistics

Aircraft based on the field: 44
Single engine airplanes: 38
Multi engine airplanes: 4
Ultralights: 2
    
Aircraft operations: avg 27/day *
80% local general aviation
20% transient general aviation
* for 12-month period ending 31 December 2015

Instrument Procedures

There are no published instrument procedures at 2O3.

Some nearby airports with instrument procedures:

KSTS - Charles M Schulz - Sonoma County Airport (18 nm W)
O69 - Petaluma Municipal Airport (21 nm S)
KAPC - Napa County Airport (23 nm S)
KVCB - Nut Tree Airport (25 nm SE)
KDVO - Gnoss Field Airport (27 nm S)
 
Loc | Ops | Rwys | IFR | FBO | Links
Com | Nav | Svcs | Stats | Notes

Sonoma Jet Center
 
Area around 2O3 (Angwin Airport-Parrett Field)
 
Road maps at: MapQuest Bing Google
 
Aerial photo
WARNING: Photo may not be current or correct
Aerial photo of 2O3 (Angwin Airport-Parrett Field)
Photo courtesy of Pilot Getaways magazine
www.pilotgetaways.com/

Do you have a better or more recent aerial photo of Angwin Airport-Parrett Field that you would like to share? If so, please send us your photo.

 
Sectional chart

 
Airport distance calculator
Flying to Angwin Airport-Parrett Field? Find the distance to fly.

From to 2O3

Sunrise and sunset
Times for 28-Jul-2017
 Local
(UTC-7)
 Zulu
(UTC)
Morning civil twilight05:3912:39
Sunrise06:0913:09
Sunset20:2303:23
Evening civil twilight20:5303:53

Current date and time
Zulu (UTC)  28-Jul-2017 16:09:36
Local (UTC-7)  28-Jul-2017 09:09:36
 
METAR
KSTS 
19nm W 
707-573-8393
281553Z 18004KT 9SM CLR 15/12 A2991 RMK AO2 SLP120 T01500117
KO69 
21nm S 
281555Z AUTO 7SM A2993 RMK A01
HES 
22nm W 
SuperAWOS
280955Z AUTO 00000KT 10SM 14/09 A2989
KAPC 
24nm S 
281554Z 20010KT 10SM OVC009 16/13 A2993 RMK AO2 SLP125 T01610133
KVCB 
26nm SE 
281553Z AUTO 00000KT 10SM CLR 26/13 A2987 RMK AO2 SLP113 T02560133
KDVO 
27nm S 
281555Z AUTO 00000KT 10SM CLR 18/12 A2993 RMK AO2
KEDU 
31nm E 
281555Z AUTO 00000KT 10SM CLR 22/13 A2987 RMK AO1
KSUU 
31nm SE 
281558Z AUTO 23014KT 10SM CLR 21/13 A2985 RMK AO2 SLP115 T02070134 $
TAF
KSTS 
19nm W 
281134Z 2812/2912 00000KT P6SM SKC FM281600 VRB03KT P6SM SKC FM281800 18007KT P6SM SKC FM282300 18011KT P6SM SKC FM290400 15005KT P6SM SKC FM290900 00000KT P6SM OVC007
NOTAMs
Click for the latest NOTAMs
NOTAMs are issued by the DoD/FAA and will open in a separate window not controlled by AirNav.

 

 
 

FBO, Fuel Providers, and Aircraft Ground Support

  
 Business Name 
 
 Contact 
 
 Services / Description 
 
Fuel Prices
 
Comments
  
PUC (Pacific Union College) Flight Center 707-965-6219
no information available

If you are affiliated with PUC (Pacific Union College) Flight Center and would like to show here your services, contact info, web link, logo, and more, click here
100LL
FS $4.42 
 Updated 26-Jul-2017
 
   write
FS=Full service
Update Fuel Prices
 

Would you like to see your business listed on this page?

 If your business provides an interesting product or service to pilots, flight crews, aircraft, or users of the Angwin Airport-Parrett Field, you should consider listing it here.  To start the listing process, click on the button below
 
Add a business
 

Other Pages about Angwin Airport-Parrett Field

www.down-and-locked.com/...
 
Update a link
 
Copyright © AirNav, LLC. All rights reserved. Privacy Policy  Contact